Time;durP1;ratioP1;P1;durP2;ratioP2;P2;SDS_P1;SDS_P2;PMS_P1;PMS_P2;Temp;Humidity;BMP_temperature;BMP_pressure;BME280_temperature;BME280_humidity;BME280_pressure;Samples;Min_cycle;Max_cycle;Signal;HPM_P1;HPM_P2
2023/10/07 00:02:13;;;;;;;12.93;7.82;;;;;;;16.85;100.00;102068.13;5090517;28;20478;-70
2023/10/07 00:04:39;;;;;;;;;;;;;;;17.33;100.00;102092.84;5089813;28;20039;-70
2023/10/07 00:07:10;;;;;;;12.40;7.70;;;;;;;17.15;100.00;102088.09;5090180;28;19912;-71
2023/10/07 00:09:43;;;;;;;13.93;8.68;;;;;;;16.88;100.00;102097.19;5089165;28;20097;-70
2023/10/07 00:12:14;;;;;;;12.55;7.88;;;;;;;17.21;100.00;102129.09;5090310;28;20553;-70
2023/10/07 00:14:43;;;;;;;12.52;8.23;;;;;;;16.90;100.00;102112.56;5090429;28;20039;-70
2023/10/07 00:17:18;;;;;;;12.77;8.00;;;;;;;16.50;100.00;102075.69;5090029;28;20048;-70
2023/10/07 00:19:47;;;;;;;11.07;7.45;;;;;;;16.97;100.00;102152.72;5090451;28;20475;-70
2023/10/07 00:22:14;;;;;;;12.73;7.65;;;;;;;17.14;100.00;102155.78;5090414;28;20496;-70
2023/10/07 00:24:45;;;;;;;13.20;7.63;;;;;;;17.19;100.00;102130.84;5090110;28;20024;-70
2023/10/07 00:27:31;;;;;;;13.75;7.78;;;;;;;16.59;100.00;102102.03;5088983;28;20482;-70
2023/10/07 00:30:01;;;;;;;13.10;7.30;;;;;;;16.85;100.00;102171.78;5088761;28;20456;-71
2023/10/07 00:32:32;;;;;;;10.90;7.80;;;;;;;16.85;100.00;102161.50;5090377;28;20026;-69
2023/10/07 00:35:00;;;;;;;15.18;7.30;;;;;;;16.81;100.00;102177.84;5088828;28;20060;-69
2023/10/07 00:37:28;;;;;;;13.57;7.13;;;;;;;16.54;100.00;102157.75;5091826;28;20028;-69
2023/10/07 00:39:54;;;;;;;11.77;7.60;;;;;;;16.73;100.00;102177.13;5099372;28;20455;-69
2023/10/07 00:42:22;;;;;;;15.27;7.82;;;;;;;16.33;100.00;102105.03;5096520;28;20031;-68
2023/10/07 00:44:51;;;;;;;14.50;7.28;;;;;;;16.37;100.00;102131.50;5093908;28;20074;-69
2023/10/07 00:47:19;;;;;;;12.90;7.55;;;;;;;16.79;100.00;102171.91;5093980;28;20414;-71
2023/10/07 00:52:28;;;;;;;13.18;7.45;;;;;;;16.55;100.00;102213.41;5093495;28;20036;-69
2023/10/07 00:55:09;;;;;;;10.20;7.40;;;;;;;16.57;100.00;102174.84;5093313;28;20028;-69
2023/10/07 00:57:35;;;;;;;11.88;6.97;;;;;;;16.46;100.00;102226.34;5093604;28;20028;-70
2023/10/07 01:02:51;;;;;;;11.75;7.72;;;;;;;16.78;100.00;102248.97;5093701;28;20414;-69
2023/10/07 01:05:27;;;;;;;8.93;6.93;;;;;;;16.62;100.00;102255.28;5092082;28;20028;-68
2023/10/07 01:07:53;;;;;;;13.27;7.47;;;;;;;16.83;100.00;102250.63;5093088;28;20028;-69
2023/10/07 01:10:26;;;;;;;11.02;7.32;;;;;;;16.65;100.00;102240.66;5093152;28;20028;-69
2023/10/07 01:12:55;;;;;;;10.38;7.25;;;;;;;16.75;100.00;102238.78;5092946;28;20467;-68
2023/10/07 01:15:23;;;;;;;12.68;7.53;;;;;;;16.38;100.00;102235.94;5092966;28;20074;-70
2023/10/07 01:17:55;;;;;;;11.43;7.10;;;;;;;16.68;100.00;102243.16;5092926;28;20544;-70
2023/10/07 01:23:33;;;;;;;11.40;7.70;;;;;;;16.51;100.00;102267.41;5070364;28;20087;-69
2023/10/07 01:25:59;;;;;;;12.10;8.50;;;;;;;16.44;100.00;102285.44;5070301;28;20059;-69
2023/10/07 01:28:26;;;;;;;11.63;7.70;;;;;;;16.46;100.00;102285.44;5081136;28;20042;-69
2023/10/07 01:31:08;;;;;;;11.88;7.40;;;;;;;15.94;100.00;102195.53;5091535;28;20024;-69
2023/10/07 01:34:00;;;;;;;14.80;7.95;;;;;;;16.66;100.00;102305.72;5092742;28;20035;-69
2023/10/07 01:36:25;;;;;;;12.63;7.68;;;;;;;16.34;100.00;102272.78;5092508;28;20413;-69
2023/10/07 01:38:51;;;;;;;12.27;7.97;;;;;;;16.06;100.00;102261.22;5091115;28;20482;-70
2023/10/07 01:41:19;;;;;;;11.65;7.97;;;;;;;16.06;100.00;102240.69;5092572;28;20059;-70
2023/10/07 01:44:00;;;;;;;12.32;8.38;;;;;;;15.92;100.00;102284.50;5092417;28;20122;-69
2023/10/07 01:46:30;;;;;;;16.25;9.57;;;;;;;16.13;100.00;102288.47;5091261;28;20028;-68
2023/10/07 01:48:57;;;;;;;18.48;9.52;;;;;;;16.15;100.00;102304.72;5092173;28;20115;-69
2023/10/07 01:51:30;;;;;;;11.95;8.68;;;;;;;15.86;100.00;102235.84;5090813;28;20030;-69
2023/10/07 01:53:57;;;;;;;15.75;9.05;;;;;;;15.46;100.00;102183.34;5092279;28;20020;-69
2023/10/07 01:56:29;;;;;;;14.05;8.52;;;;;;;15.87;100.00;102287.97;5092429;28;20524;-70
2023/10/07 01:58:57;;;;;;;13.82;8.60;;;;;;;15.80;100.00;102300.03;5091962;28;20391;-68
2023/10/07 02:01:28;;;;;;;16.38;8.82;;;;;;;15.63;100.00;102274.56;5090016;28;20032;-71
2023/10/07 02:03:57;;;;;;;13.82;8.75;;;;;;;16.15;100.00;102318.41;5071939;28;20090;-69
2023/10/07 02:06:26;;;;;;;15.25;9.25;;;;;;;16.07;100.00;102301.41;5080465;28;20119;-70
2023/10/07 02:08:54;;;;;;;13.93;8.82;;;;;;;15.88;100.00;102294.81;5072018;28;20089;-70
2023/10/07 02:11:27;;;;;;;15.73;8.20;;;;;;;16.01;100.00;102276.66;5070233;28;20410;-70
2023/10/07 02:13:55;;;;;;;14.98;8.52;;;;;;;15.65;100.00;102263.47;5071947;28;20573;-70
2023/10/07 02:16:21;;;;;;;20.38;11.63;;;;;;;15.68;100.00;102266.84;5071265;28;20087;-70
2023/10/07 02:18:47;;;;;;;23.60;14.00;;;;;;;15.93;100.00;102288.75;5071586;28;20661;-70
2023/10/07 02:21:16;;;;;;;23.83;14.00;;;;;;;15.42;100.00;102223.56;5073548;28;20038;-70
2023/10/07 02:23:45;;;;;;;18.45;11.90;;;;;;;15.56;100.00;102225.94;5085858;28;20020;-70
2023/10/07 02:26:21;;;;;;;18.23;11.98;;;;;;;15.85;100.00;102271.75;5071330;28;20082;-69
2023/10/07 02:28:51;;;;;;;19.27;10.30;;;;;;;15.49;100.00;102214.06;5069739;28;20093;-69
2023/10/07 02:31:19;;;;;;;19.70;10.63;;;;;;;15.57;100.00;102243.88;5071334;28;20660;-68
2023/10/07 02:33:58;;;;;;;15.18;10.18;;;;;;;15.91;100.00;102281.94;5071366;28;20498;-70
2023/10/07 02:36:36;;;;;;;18.02;10.52;;;;;;;15.65;100.00;102278.84;5082147;28;20111;-69
2023/10/07 02:39:05;;;;;;;19.40;10.50;;;;;;;15.66;100.00;102309.63;5087532;28;20032;-69
2023/10/07 02:41:31;;;;;;;18.95;9.95;;;;;;;15.69;100.00;102326.69;5091391;28;20024;-69
2023/10/07 02:44:06;;;;;;;14.13;9.23;;;;;;;15.21;100.00;102263.94;5092003;28;20110;-70
2023/10/07 02:46:34;;;;;;;15.93;9.65;;;;;;;15.60;100.00;102343.00;5090205;28;20024;-70
2023/10/07 02:49:09;;;;;;;13.93;8.82;;;;;;;15.82;100.00;102362.44;5091322;28;20032;-68
2023/10/07 02:51:39;;;;;;;18.50;10.05;;;;;;;15.62;100.00;102348.97;5089808;28;20042;-70
2023/10/07 02:54:21;;;;;;;16.38;9.68;;;;;;;15.57;100.00;102358.41;5091180;28;20024;-69
2023/10/07 02:56:55;;;;;;;16.33;10.10;;;;;;;15.45;100.00;102392.72;5091298;28;20035;-70
2023/10/07 02:59:28;;;;;;;18.88;10.50;;;;;;;14.84;100.00;102295.84;5090589;28;20036;-69
2023/10/07 03:02:12;;;;;;;20.45;13.23;;;;;;;15.58;100.00;102411.44;5089625;28;20028;-70
2023/10/07 03:04:43;;;;;;;28.25;13.98;;;;;;;15.43;100.00;102399.59;5091373;28;20035;-70
2023/10/07 03:07:15;;;;;;;26.83;14.40;;;;;;;14.90;100.00;102323.97;5091038;28;20494;-69
2023/10/07 03:09:43;;;;;;;20.33;12.73;;;;;;;15.83;100.00;102440.25;5089740;28;20452;-70
2023/10/07 03:12:27;;;;;;;20.80;12.23;;;;;;;15.23;100.00;102419.38;5090966;28;20565;-68
2023/10/07 03:14:55;;;;;;;22.00;12.27;;;;;;;15.51;100.00;102464.47;5090893;28;20494;-70
2023/10/07 03:17:21;;;;;;;21.02;11.82;;;;;;;14.76;100.00;102398.34;5090971;28;20040;-70
2023/10/07 03:20:46;;;;;;;19.95;11.65;;;;;;;15.20;100.00;102431.38;5091179;28;20024;-69
2023/10/07 03:22:42;;;;;;;20.83;10.43;;;;;;;15.01;100.00;102491.28;5083165;28;20044;-69
2023/10/07 03:25:08;;;;;;;17.13;10.10;;;;;;;14.87;100.00;102458.06;5089274;28;20034;-70
2023/10/07 03:27:39;;;;;;;18.17;10.48;;;;;;;15.35;100.00;102509.00;5091018;28;20416;-69
2023/10/07 03:30:15;;;;;;;16.30;9.05;;;;;;;15.19;100.00;102527.91;5090284;28;20042;-69
2023/10/07 03:33:07;;;;;;;17.45;9.43;;;;;;;14.89;100.00;102487.09;5070853;28;20028;-69
2023/10/07 03:38:30;;;;;;;16.45;10.15;;;;;;;14.93;100.00;102503.28;5028483;28;20079;-70
2023/10/07 03:40:58;;;;;;;15.65;10.70;;;;;;;15.45;100.00;102576.50;5061220;28;20036;-67
2023/10/07 03:43:26;;;;;;;18.83;10.77;;;;;;;14.83;100.00;102507.63;5090104;28;20032;-69
2023/10/07 03:45:55;;;;;;;26.20;11.20;;;;;;;14.72;100.00;102502.53;5090351;28;20028;-69
2023/10/07 03:48:24;;;;;;;17.98;10.70;;;;;;;14.93;100.00;102526.34;5090600;28;20484;-69
2023/10/07 03:51:04;;;;;;;18.67;10.95;;;;;;;14.85;100.00;102503.34;5090500;28;20450;-71
2023/10/07 03:53:31;;;;;;;18.60;10.80;;;;;;;15.12;100.00;102525.38;5090412;28;20455;-69
2023/10/07 03:55:59;;;;;;;19.30;10.30;;;;;;;15.02;100.00;102513.47;5090582;28;20135;-69
2023/10/07 03:58:27;;;;;;;21.98;10.77;;;;;;;15.09;100.00;102527.97;5088913;28;20139;-69
2023/10/07 04:00:53;;;;;;;19.35;11.02;;;;;;;15.24;100.00;102586.84;5089364;28;20024;-69
2023/10/07 04:03:23;;;;;;;17.55;10.05;;;;;;;15.24;100.00;102562.06;5095087;28;20036;-70
2023/10/07 04:05:49;;;;;;;17.48;10.90;;;;;;;14.92;100.00;102552.81;5102108;28;20487;-68
2023/10/07 04:08:18;;;;;;;17.13;10.00;;;;;;;14.69;100.00;102523.06;5090467;28;20038;-71
2023/10/07 04:10:45;;;;;;;14.25;10.00;;;;;;;15.07;100.00;102594.63;5090184;28;20075;-70
2023/10/07 04:13:21;;;;;;;14.35;8.25;;;;;;;15.20;100.00;102590.28;5092368;28;20403;-70
2023/10/07 04:15:52;;;;;;;18.33;7.65;;;;;;;14.94;100.00;102490.47;5093492;28;20109;-69
2023/10/07 04:18:23;;;;;;;13.80;6.75;;;;;;;15.34;100.00;102438.09;5094129;28;20032;-70
2023/10/07 04:23:24;;;;;;;11.95;6.60;;;;;;;15.00;100.00;102277.78;5094070;28;20031;-72
2023/10/07 04:26:05;;;;;;;8.77;5.72;;;;;;;15.10;100.00;102253.78;5092517;28;20079;-71
2023/10/07 04:28:31;;;;;;;12.97;7.03;;;;;;;15.28;100.00;102274.09;5092834;28;20031;-69
2023/10/07 04:30:57;;;;;;;18.88;7.40;;;;;;;15.25;100.00;102271.53;5093957;28;20361;-68
2023/10/07 04:33:32;;;;;;;15.27;6.72;;;;;;;15.35;100.00;102213.38;5092443;28;20119;-71
2023/10/07 04:36:02;;;;;;;13.25;6.55;;;;;;;15.43;100.00;102243.19;5093571;28;20024;-71
2023/10/07 04:46:33;;;;;;;16.42;7.75;;;;;;;16.66;100.00;102195.25;5093640;28;20035;-69
2023/10/07 04:49:12;;;;;;;17.02;7.93;;;;;;;15.58;100.00;102084.03;5093888;28;20961;-72
2023/10/07 04:54:07;;;;;;;18.80;7.35;;;;;;;17.24;100.00;102085.28;5093415;28;20055;-71
2023/10/07 04:56:33;;;;;;;14.50;7.15;;;;;;;18.41;100.00;101980.31;5093201;28;20063;-71
2023/10/07 04:59:09;;;;;;;12.32;6.78;;;;;;;18.78;100.00;101898.47;5093072;28;20028;-69
2023/10/07 05:01:35;;;;;;;15.85;7.22;;;;;;;17.68;100.00;101878.50;5093457;28;20103;-71
2023/10/07 05:04:05;;;;;;;12.82;6.75;;;;;;;18.98;100.00;101880.66;5092075;28;20039;-68
2023/10/07 05:06:34;;;;;;;11.63;6.50;;;;;;;20.22;100.00;101810.06;5093050;28;20036;-70
2023/10/07 05:09:09;;;;;;;11.23;6.50;;;;;;;20.53;100.00;101721.81;5090910;28;20024;-70
2023/10/07 05:11:43;;;;;;;12.05;6.93;;;;;;;20.62;100.00;101664.53;5078299;28;20039;-69
2023/10/07 05:14:17;;;;;;;18.48;8.82;;;;;;;20.01;100.00;101634.34;5086342;28;20481;-70
2023/10/07 05:16:46;;;;;;;23.13;8.32;;;;;;;20.43;100.00;101602.47;5088497;28;20039;-70
2023/10/07 05:19:26;;;;;;;16.70;8.75;;;;;;;21.15;100.00;101664.84;5083135;28;20035;-70
2023/10/07 05:21:59;;;;;;;21.02;9.40;;;;;;;20.11;100.00;101596.94;5084016;28;20123;-70
2023/10/07 05:24:28;;;;;;;25.63;10.68;;;;;;;20.32;100.00;101652.94;5081732;28;20058;-70
2023/10/07 05:26:55;;;;;;;25.77;11.32;;;;;;;19.21;100.00;101622.00;5090879;28;20039;-69
2023/10/07 05:29:20;;;;;;;22.63;11.60;;;;;;;18.01;100.00;101627.88;5089944;28;20513;-68
2023/10/07 05:31:46;;;;;;;17.77;10.50;;;;;;;17.59;100.00;101683.25;5091182;28;20098;-70
2023/10/07 05:34:11;;;;;;;21.08;10.18;;;;;;;16.98;100.00;101630.09;5091963;28;20039;-69
2023/10/07 05:36:38;;;;;;;24.30;10.82;;;;;;;16.69;100.00;101697.69;5092462;28;20024;-70
2023/10/07 05:39:07;;;;;;;21.52;10.80;;;;;;;17.08;100.00;101660.66;5092367;28;20020;-69
2023/10/07 05:41:32;;;;;;;16.40;8.60;;;;;;;16.87;100.00;101689.50;5092415;28;20075;-72
2023/10/07 05:43:59;;;;;;;13.70;7.60;;;;;;;17.59;100.00;101668.63;5091309;28;20039;-72
2023/10/07 05:46:24;;;;;;;16.15;8.38;;;;;;;17.57;100.00;101657.53;5092355;28;20028;-70
2023/10/07 05:48:51;;;;;;;15.75;8.25;;;;;;;17.96;100.00;101705.25;5092174;28;20028;-69
2023/10/07 05:51:17;;;;;;;13.85;8.52;;;;;;;18.04;100.00;101661.25;5089902;28;20189;-71
2023/10/07 05:53:45;;;;;;;17.10;8.50;;;;;;;18.07;100.00;101630.25;5080856;28;20487;-70
2023/10/07 05:56:10;;;;;;;17.77;10.65;;;;;;;17.96;100.00;101725.00;5081540;28;20052;-71
2023/10/07 05:58:38;;;;;;;20.70;12.32;;;;;;;18.04;100.00;101640.66;5089443;28;20459;-73
2023/10/07 06:01:05;;;;;;;24.73;12.90;;;;;;;18.71;100.00;101696.81;5091080;28;20035;-71
2023/10/07 06:03:30;;;;;;;20.65;13.07;;;;;;;17.47;100.00;101632.13;5091694;28;20039;-70
2023/10/07 06:05:57;;;;;;;23.55;13.30;;;;;;;18.52;100.00;101620.22;5092276;28;20418;-72
2023/10/07 06:08:26;;;;;;;21.83;12.68;;;;;;;19.00;100.00;101621.88;5092034;28;20433;-71
2023/10/07 06:10:59;;;;;;;19.48;10.80;;;;;;;19.12;100.00;101679.06;5091997;28;20036;-71
2023/10/07 06:13:26;;;;;;;17.65;10.50;;;;;;;19.29;100.00;101651.78;5091895;28;20024;-71
2023/10/07 06:15:52;;;;;;;18.65;11.02;;;;;;;19.03;100.00;101626.91;5091946;28;20093;-72
2023/10/07 06:18:18;;;;;;;20.05;11.57;;;;;;;19.94;100.00;101600.22;5091525;28;20040;-70
2023/10/07 06:20:50;;;;;;;23.90;12.05;;;;;;;19.59;100.00;101660.97;5090260;28;20090;-71
2023/10/07 06:23:16;;;;;;;18.52;11.57;;;;;;;19.63;100.00;101670.28;5091340;28;20016;-70
2023/10/07 06:25:49;;;;;;;21.35;12.05;;;;;;;19.43;100.00;101656.47;5089370;28;20545;-70
2023/10/07 06:31:22;;;;;;;17.35;9.85;;;;;;;19.78;100.00;101656.78;5091965;28;20035;-73
2023/10/07 06:34:11;;;;;;;16.05;9.77;;;;;;;19.78;100.00;101648.19;5091236;28;20062;-69
2023/10/07 06:36:37;;;;;;;29.73;11.32;;;;;;;20.28;100.00;101617.78;5091268;28;20028;-70
2023/10/07 06:39:07;;;;;;;21.25;10.90;;;;;;;19.71;100.00;101587.38;5090221;28;20471;-70
2023/10/07 06:41:34;;;;;;;14.55;9.70;;;;;;;20.87;100.00;101664.34;5089655;28;20103;-69
2023/10/07 06:44:03;;;;;;;17.08;10.10;;;;;;;20.74;100.00;101664.03;5091139;28;20426;-71
2023/10/07 06:46:31;;;;;;;18.00;10.00;;;;;;;21.26;100.00;101653.13;5091269;28;20035;-72
2023/10/07 06:48:57;;;;;;;22.15;11.18;;;;;;;20.77;100.00;101601.00;5089721;28;20024;-70
2023/10/07 06:51:23;;;;;;;28.02;13.10;;;;;;;20.46;100.00;101617.00;5091392;28;20490;-71
2023/10/07 06:53:49;;;;;;;24.38;13.40;;;;;;;20.31;100.00;101612.47;5089709;28;20024;-70
2023/10/07 06:56:21;;;;;;;21.80;13.27;;;;;;;20.09;100.00;101599.59;5091515;28;20101;-70
2023/10/07 06:58:54;;;;;;;23.98;13.25;;;;;;;21.09;100.00;101610.81;5090087;28;20027;-71
2023/10/07 07:01:35;;;;;;;26.50;17.70;;;;;;;21.29;100.00;101662.50;5091122;28;20027;-70
2023/10/07 07:04:09;;;;;;;;;;;;;;;21.36;100.00;101664.72;5091298;28;20081;-70
2023/10/07 07:06:42;;;;;;;29.77;19.83;;;;;;;21.94;100.00;101655.13;5091069;28;20351;-71
2023/10/07 07:12:09;;;;;;;25.97;17.80;;;;;;;20.95;100.00;101665.72;5091587;28;20043;-71
2023/10/07 07:14:35;;;;;;;28.05;14.05;;;;;;;21.99;100.00;101655.72;5089102;28;20040;-71
2023/10/07 07:20:18;;;;;;;20.35;9.90;;;;;;;22.27;100.00;101655.22;5091240;28;20063;-70
2023/10/07 07:22:46;;;;;;;17.63;10.40;;;;;;;21.86;100.00;101680.53;5090520;28;20035;-69
2023/10/07 07:27:52;;;;;;;11.82;5.68;;;;;;;21.91;100.00;101669.94;5098370;28;20056;-73
2023/10/07 07:30:31;;;;;;;11.05;4.85;;;;;;;21.27;100.00;101576.31;5102403;28;20028;-74
2023/10/07 07:32:59;;;;;;;15.15;5.03;;;;;;;22.65;100.00;101648.97;5090917;28;20024;-71
2023/10/07 07:35:43;;;;;;;13.15;4.80;;;;;;;22.53;100.00;101602.88;5090527;28;20036;-73
2023/10/07 07:38:29;;;;;;;12.65;4.28;;;;;;;22.49;100.00;101658.41;5090912;28;20070;-71
2023/10/07 07:41:06;;;;;;;11.30;4.80;;;;;;;22.70;100.00;101651.34;5090651;28;20035;-69
2023/10/07 07:43:36;;;;;;;7.82;4.68;;;;;;;22.73;100.00;101557.78;5077806;28;20094;-69
2023/10/07 07:48:44;;;;;;;15.60;4.80;;;;;;;23.67;100.00;101639.19;5074430;28;20353;-69
2023/10/07 07:51:11;;;;;;;8.85;4.75;;;;;;;22.50;100.00;101631.59;5074687;28;20082;-69
2023/10/07 07:53:37;;;;;;;13.15;4.95;;;;;;;22.36;100.00;101614.09;5074173;28;20025;-70
2023/10/07 07:56:03;;;;;;;7.43;4.82;;;;;;;22.80;100.00;101635.22;5092713;28;20061;-68
2023/10/07 07:58:28;;;;;;;18.42;5.60;;;;;;;23.02;100.00;101635.75;5074579;28;20050;-69
2023/10/07 08:01:05;;;;;;;11.05;4.25;;;;;;;23.48;100.00;101610.78;5078743;28;20517;-71
2023/10/07 08:03:38;;;;;;;13.43;4.82;;;;;;;23.45;100.00;101586.75;5094288;28;20062;-68
2023/10/07 08:06:06;;;;;;;8.10;4.85;;;;;;;23.47;100.00;101603.09;5092640;28;20060;-69
2023/10/07 08:08:36;;;;;;;11.32;4.82;;;;;;;23.65;100.00;101636.66;5094188;28;20122;-69
2023/10/07 08:11:02;;;;;;;11.68;5.18;;;;;;;23.76;100.00;101654.25;5094410;28;20111;-70
2023/10/07 08:13:28;;;;;;;9.27;4.68;;;;;;;23.01;100.00;101602.13;5094362;28;20078;-69
2023/10/07 08:15:54;;;;;;;12.60;4.90;;;;;;;23.41;100.00;101606.88;5094088;28;20052;-69
2023/10/07 08:18:28;;;;;;;19.52;5.68;;;;;;;23.28;100.00;101653.38;5094371;28;20024;-68
2023/10/07 08:21:06;;;;;;;11.30;4.82;;;;;;;22.20;100.00;101618.41;5094209;28;20028;-69
2023/10/07 08:23:40;;;;;;;14.15;4.95;;;;;;;23.42;100.00;101641.44;5092837;28;20036;-69
2023/10/07 08:26:10;;;;;;;17.30;5.18;;;;;;;23.87;100.00;101633.69;5094119;28;20020;-70
2023/10/07 08:31:21;;;;;;;14.07;5.57;;;;;;;24.32;100.00;101623.31;5093728;28;20122;-68
2023/10/07 08:34:23;;;;;;;12.18;5.15;;;;;;;23.97;100.00;101620.09;5093451;28;20518;-68
2023/10/07 08:36:47;;;;;;;13.25;4.88;;;;;;;23.30;100.00;101637.72;5091414;28;20445;-69
2023/10/07 08:39:17;;;;;;;15.63;5.28;;;;;;;24.09;100.00;101601.22;5093746;28;20506;-69
2023/10/07 08:41:47;;;;;;;10.13;5.32;;;;;;;23.91;100.00;101614.41;5092290;28;20028;-72
2023/10/07 08:44:13;;;;;;;11.57;4.70;;;;;;;23.49;100.00;101577.88;5093784;28;20094;-70
2023/10/07 08:47:03;;;;;;;11.85;5.20;;;;;;;24.24;100.00;101606.47;5092082;28;20418;-70
2023/10/07 08:49:32;;;;;;;7.85;4.45;;;;;;;24.41;100.00;101582.88;5093510;28;20027;-70
2023/10/07 08:51:59;;;;;;;33.40;6.70;;;;;;;24.00;100.00;101609.53;5092207;28;20031;-71
2023/10/07 08:54:37;;;;;;;14.30;5.55;;;;;;;24.12;100.00;101614.97;5093294;28;20484;-68
2023/10/07 08:57:19;;;;;;;11.43;4.95;;;;;;;24.54;100.00;101539.63;5093168;28;20039;-70
2023/10/07 08:59:52;;;;;;;13.65;4.88;;;;;;;23.55;100.00;101552.38;5093358;28;20028;-69
2023/10/07 09:02:27;;;;;;;20.92;5.60;;;;;;;23.83;100.00;101611.41;5093231;28;20097;-68
2023/10/07 09:04:54;;;;;;;11.75;5.20;;;;;;;24.21;100.00;101554.63;5093469;28;20114;-71
2023/10/07 09:07:20;;;;;;;12.18;5.38;;;;;;;24.48;100.00;101579.81;5093272;28;20024;-69
2023/10/07 09:09:46;;;;;;;11.65;5.13;;;;;;;24.29;100.00;101568.84;5092028;28;20482;-68
2023/10/07 09:12:15;;;;;;;16.38;5.20;;;;;;;23.77;100.00;101542.44;5093431;28;20050;-69
2023/10/07 09:14:52;;;;;;;12.95;5.40;;;;;;;23.68;100.00;101552.53;5091824;28;20036;-75
2023/10/07 09:17:21;;;;;;;16.73;5.65;;;;;;;24.61;100.00;101556.50;5093483;28;20446;-69
2023/10/07 09:19:52;;;;;;;13.65;5.75;;;;;;;24.69;100.00;101557.72;5091914;28;20498;-69
2023/10/07 09:22:24;;;;;;;11.60;4.97;;;;;;;25.00;100.00;101548.88;5091653;28;20020;-69
2023/10/07 09:24:54;;;;;;;16.45;5.32;;;;;;;24.66;100.00;101502.44;5093549;28;20402;-73
2023/10/07 09:27:38;;;;;;;11.70;5.00;;;;;;;24.32;100.00;101554.84;5092948;28;20036;-72
2023/10/07 09:32:55;;;;;;;12.15;5.60;;;;;;;25.16;100.00;101513.13;5093207;28;20081;-73
2023/10/07 09:35:25;;;;;;;28.23;6.60;;;;;;;24.32;100.00;101508.03;5092978;28;20066;-70
2023/10/07 09:37:57;;;;;;;18.85;5.82;;;;;;;25.33;100.00;101536.34;5091281;28;20058;-70
2023/10/07 09:43:29;;;;;;;13.00;5.85;;;;;;;25.29;100.00;101518.41;5092317;28;20101;-71
2023/10/07 09:45:58;;;;;;;10.98;5.20;;;;;;;25.77;100.00;101517.81;5092516;28;20024;-68
2023/10/07 09:48:33;;;;;;;14.02;5.55;;;;;;;25.27;100.00;101518.50;5092476;28;20024;-69
2023/10/07 09:51:00;;;;;;;11.80;6.00;;;;;;;24.78;100.00;101468.69;5091104;28;20040;-69
2023/10/07 09:53:46;;;;;;;8.52;5.70;;;;;;;25.51;100.00;101516.09;5091037;28;20028;-69
2023/10/07 09:56:29;;;;;;;27.17;6.55;;;;;;;25.53;100.00;101522.06;5092227;28;20040;-69
2023/10/07 09:59:25;;;;;;;11.23;5.88;;;;;;;25.58;100.00;101504.34;5089745;28;20035;-73
2023/10/07 10:02:32;;;;;;;15.00;6.03;;;;;;;25.50;100.00;101472.72;5092228;28;20032;-68
2023/10/07 10:05:11;;;;;;;25.08;7.13;;;;;;;26.68;100.00;101443.69;5042717;28;20487;-69
2023/10/07 10:07:47;;;;;;;51.72;9.85;;;;;;;25.72;100.00;101501.66;5091826;28;20028;-68
2023/10/07 10:10:14;;;;;;;65.95;14.02;;;;;;;25.32;100.00;101481.72;5090773;28;20028;-69
2023/10/07 10:12:49;;;;;;;594.95;68.03;;;;;;;25.41;100.00;101508.06;5091984;28;20043;-69
2023/10/07 10:17:53;;;;;;;27.15;7.75;;;;;;;25.32;100.00;101466.94;5090137;28;20056;-69
2023/10/07 10:20:27;;;;;;;15.45;5.70;;;;;;;25.25;100.00;101408.38;5092143;28;20120;-69
2023/10/07 10:23:00;;;;;;;12.30;5.63;;;;;;;25.00;100.00;101384.06;5091713;28;20038;-69
2023/10/07 10:25:36;;;;;;;14.48;6.03;;;;;;;25.87;100.00;101353.81;5091869;28;20024;-69
2023/10/07 10:28:07;;;;;;;15.57;5.55;;;;;;;26.24;100.00;101412.91;5085118;28;20539;-69
2023/10/07 10:30:33;;;;;;;26.27;6.75;;;;;;;26.12;100.00;101435.47;5083157;28;20509;-69
2023/10/07 10:33:08;;;;;;;12.48;5.68;;;;;;;25.41;100.00;101432.50;5091543;28;20538;-68
2023/10/07 10:35:40;;;;;;;43.92;7.05;;;;;;;26.56;100.00;101403.66;5091625;28;20040;-67
2023/10/07 10:38:09;;;;;;;20.23;6.38;;;;;;;27.19;100.00;101405.97;5090223;28;20028;-71
2023/10/07 10:40:35;;;;;;;22.67;6.70;;;;;;;26.44;100.00;101336.69;5090064;28;20032;-69
2023/10/07 10:43:01;;;;;;;15.50;6.18;;;;;;;26.43;100.00;101329.78;5091064;28;20113;-71
2023/10/07 10:45:29;;;;;;;13.73;6.15;;;;;;;26.66;100.00;101328.97;5091273;28;20346;-69
2023/10/07 10:47:57;;;;;;;10.95;6.30;;;;;;;26.42;100.00;101419.44;5091506;28;20115;-71
2023/10/07 10:50:24;;;;;;;15.82;6.35;;;;;;;25.73;100.00;101397.28;5091000;28;20027;-71
2023/10/07 10:53:00;;;;;;;15.35;6.47;;;;;;;25.70;100.00;101348.00;5092118;28;20032;-70
2023/10/07 10:55:33;;;;;;;8.65;5.82;;;;;;;26.61;100.00;101385.88;5093662;28;20046;-69
2023/10/07 10:58:00;;;;;;;10.35;5.57;;;;;;;24.93;100.00;101371.44;5092332;28;20028;-70
2023/10/07 11:00:25;;;;;;;11.30;5.68;;;;;;;25.94;100.00;101407.19;5083855;28;20032;-70
2023/10/07 11:02:55;;;;;;;16.10;6.35;;;;;;;25.48;100.00;101269.63;5070733;28;20021;-70
2023/10/07 11:05:21;;;;;;;9.50;5.40;;;;;;;26.27;100.00;101326.59;5070857;28;20021;-70
2023/10/07 11:07:50;;;;;;;12.40;5.70;;;;;;;26.53;100.00;101347.28;5070979;28;20542;-70
2023/10/07 11:10:20;;;;;;;16.67;5.68;;;;;;;25.47;100.00;101320.03;5069433;28;20483;-70
2023/10/07 11:12:52;;;;;;;14.30;6.40;;;;;;;26.28;100.00;101372.63;5070741;28;20503;-69
2023/10/07 11:15:24;;;;;;;14.98;6.30;;;;;;;26.59;100.00;101367.72;5070665;28;20043;-69
2023/10/07 11:17:58;;;;;;;9.52;5.78;;;;;;;26.59;100.00;101322.50;5070313;28;20138;-70
2023/10/07 11:20:24;;;;;;;13.50;6.00;;;;;;;25.73;100.00;101352.16;5070065;28;20028;-70
2023/10/07 11:22:53;;;;;;;13.93;5.85;;;;;;;25.31;100.00;101323.78;5070523;28;20040;-70
2023/10/07 11:25:22;;;;;;;10.48;5.65;;;;;;;25.45;100.00;101358.41;5069498;28;20510;-69
2023/10/07 11:27:49;;;;;;;11.52;6.18;;;;;;;25.45;100.00;101316.72;5083125;28;20055;-69
2023/10/07 11:30:14;;;;;;;13.20;5.82;;;;;;;26.13;100.00;101332.81;5086725;28;20107;-69
2023/10/07 11:32:42;;;;;;;11.90;6.10;;;;;;;25.56;100.00;101292.53;5084221;28;20118;-68
2023/10/07 11:35:27;;;;;;;15.10;6.20;;;;;;;25.17;100.00;101279.59;5070244;28;20025;-68
2023/10/07 11:38:02;;;;;;;11.23;6.20;;;;;;;25.86;100.00;101300.00;5079721;28;20039;-68
2023/10/07 11:40:30;;;;;;;13.50;6.25;;;;;;;26.08;100.00;101324.50;5083442;28;20178;-68
2023/10/07 11:42:58;;;;;;;16.25;6.68;;;;;;;25.98;100.00;101320.84;5090652;28;20024;-69
2023/10/07 11:45:26;;;;;;;12.60;6.40;;;;;;;26.77;100.00;101313.34;5090688;28;20032;-68
2023/10/07 11:47:56;;;;;;;10.57;6.30;;;;;;;26.50;100.00;101261.38;5089243;28;20074;-68
2023/10/07 11:50:23;;;;;;;9.48;5.82;;;;;;;27.02;100.00;101288.88;5090722;28;20039;-68
2023/10/07 11:52:48;;;;;;;11.82;6.30;;;;;;;26.67;100.00;101236.66;5089983;28;20075;-70
2023/10/07 11:55:17;;;;;;;11.70;6.53;;;;;;;26.59;100.00;101223.34;5089038;28;20420;-70
2023/10/07 11:57:43;;;;;;;10.60;6.20;;;;;;;26.22;100.00;101246.09;5070936;28;20029;-68
2023/10/07 12:00:27;;;;;;;14.85;6.65;;;;;;;26.45;100.00;101231.34;5068845;28;20036;-68
2023/10/07 12:02:57;;;;;;;11.18;6.25;;;;;;;26.59;100.00;101252.03;5078749;28;20093;-69
2023/10/07 12:05:27;;;;;;;10.38;6.30;;;;;;;26.58;100.00;101217.28;5090505;28;20020;-69
2023/10/07 12:07:59;;;;;;;15.77;6.70;;;;;;;27.16;100.00;101272.97;5088886;28;20032;-69
2023/10/07 12:10:26;;;;;;;12.15;6.63;;;;;;;27.13;100.00;101232.25;5073069;28;20487;-68
2023/10/07 12:12:52;;;;;;;9.13;6.68;;;;;;;27.26;100.00;101253.84;5069968;28;20032;-68
2023/10/07 12:15:18;;;;;;;12.93;6.53;;;;;;;27.28;100.00;101265.03;5069989;28;20037;-69